Time;durP1;ratioP1;P1;durP2;ratioP2;P2;SDS_P1;SDS_P2;PMS_P1;PMS_P2;Temp;Humidity;BMP_temperature;BMP_pressure;BME280_temperature;BME280_humidity;BME280_pressure;Samples;Min_cycle;Max_cycle;Signal;HPM_P1;HPM_P2
2023/03/13 00:02:21;;;;;;;16.23;3.10;;;11.70;99.90;;;;;;5054719;28;20444;-81
2023/03/13 00:04:48;;;;;;;17.25;3.17;;;11.80;99.90;;;;;;5055804;28;20099;-83
2023/03/13 00:07:15;;;;;;;19.65;3.75;;;11.80;99.90;;;;;;5055455;28;20094;-79
2023/03/13 00:09:41;;;;;;;19.33;3.58;;;11.80;99.90;;;;;;5053643;28;20471;-80
2023/03/13 00:12:08;;;;;;;22.05;3.78;;;11.80;99.90;;;;;;5054826;28;20394;-82
2023/03/13 00:14:34;;;;;;;20.88;4.38;;;11.80;99.90;;;;;;5052988;28;20054;-82
2023/03/13 00:17:01;;;;;;;17.70;4.70;;;11.80;99.90;;;;;;5055177;28;20052;-80
2023/03/13 00:19:28;;;;;;;18.70;4.25;;;11.90;99.90;;;;;;5055498;28;20136;-79
2023/03/13 00:21:55;;;;;;;20.35;4.53;;;11.90;99.90;;;;;;5054437;28;20041;-79
2023/03/13 00:24:21;;;;;;;26.33;4.35;;;11.90;99.90;;;;;;5055561;28;20033;-80
2023/03/13 00:26:48;;;;;;;29.10;5.93;;;11.90;99.90;;;;;;5053989;28;20040;-81
2023/03/13 00:29:15;;;;;;;25.80;4.70;;;11.90;99.90;;;;;;5054224;28;20056;-80
2023/03/13 00:31:42;;;;;;;26.92;4.38;;;11.90;99.90;;;;;;5054368;28;20037;-81
2023/03/13 00:34:09;;;;;;;26.67;5.97;;;11.90;99.90;;;;;;5055534;28;20520;-78
2023/03/13 00:36:36;;;;;;;20.80;3.88;;;11.90;99.90;;;;;;5052809;28;20136;-80
2023/03/13 00:39:02;;;;;;;30.90;5.07;;;11.90;99.90;;;;;;5054210;28;20057;-82
2023/03/13 00:41:29;;;;;;;19.00;4.50;;;11.90;99.90;;;;;;5054040;28;20106;-81
2023/03/13 00:43:56;;;;;;;23.45;4.32;;;11.90;99.90;;;;;;5054749;28;20068;-81
2023/03/13 00:46:22;;;;;;;31.63;4.50;;;11.90;99.90;;;;;;5054722;28;20368;-82
2023/03/13 00:48:50;;;;;;;22.83;5.95;;;11.90;99.90;;;;;;5035822;28;20053;-80
2023/03/13 00:51:16;;;;;;;22.25;4.45;;;11.80;99.90;;;;;;5033198;28;20034;-78
2023/03/13 00:53:44;;;;;;;19.27;4.07;;;11.80;99.90;;;;;;5034058;28;20046;-82
2023/03/13 00:56:11;;;;;;;18.83;4.10;;;11.80;99.90;;;;;;5032417;28;20046;-81
2023/03/13 00:58:38;;;;;;;25.10;3.92;;;11.80;99.90;;;;;;5034213;28;20503;-81
2023/03/13 01:01:05;;;;;;;19.77;4.70;;;11.80;99.90;;;;;;5032873;28;20379;-79
2023/03/13 01:03:31;;;;;;;32.97;4.53;;;11.80;99.90;;;;;;5033866;28;20076;-80
2023/03/13 01:06:00;;;;;;;22.15;3.92;;;11.80;99.90;;;;;;5034379;28;20034;-79
2023/03/13 01:08:27;;;;;;;21.73;4.25;;;11.80;99.90;;;;;;5016305;28;20053;-80
2023/03/13 01:10:54;;;;;;;30.60;4.82;;;11.80;99.90;;;;;;5034665;28;20116;-80
2023/03/13 01:13:21;;;;;;;27.42;5.10;;;11.80;99.90;;;;;;5034096;28;20045;-78
2023/03/13 01:15:47;;;;;;;30.13;4.32;;;11.80;99.90;;;;;;5032224;28;20041;-78
2023/03/13 01:18:14;;;;;;;25.35;5.05;;;11.90;99.90;;;;;;5033772;28;20060;-81
2023/03/13 01:20:41;;;;;;;25.65;5.15;;;11.90;99.90;;;;;;5017563;28;20033;-79
2023/03/13 01:23:07;;;;;;;22.80;4.97;;;11.80;99.90;;;;;;5032387;28;20049;-83
2023/03/13 01:25:34;;;;;;;21.67;4.55;;;11.80;99.90;;;;;;5033200;28;20495;-81
2023/03/13 01:28:01;;;;;;;20.58;3.40;;;11.80;99.90;;;;;;5032898;28;20511;-81
2023/03/13 01:30:28;;;;;;;14.43;3.38;;;11.80;99.90;;;;;;5033693;28;20102;-80
2023/03/13 01:32:55;;;;;;;13.63;3.17;;;11.70;99.90;;;;;;5034615;28;20049;-81
2023/03/13 01:35:22;;;;;;;12.77;3.33;;;11.70;99.90;;;;;;5032099;28;20051;-82
2023/03/13 01:37:49;;;;;;;15.07;3.42;;;11.60;99.90;;;;;;5034268;28;20038;-81
2023/03/13 01:40:16;;;;;;;21.15;3.38;;;11.60;99.90;;;;;;5033835;28;20041;-79
2023/03/13 01:42:43;;;;;;;12.35;3.03;;;11.60;99.90;;;;;;5032719;28;20439;-78
2023/03/13 01:45:09;;;;;;;15.70;4.28;;;11.60;99.90;;;;;;5033939;28;20528;-78
2023/03/13 01:47:36;;;;;;;12.98;3.35;;;11.60;99.90;;;;;;5033478;28;20049;-81
2023/03/13 01:50:07;;;;;;;10.50;3.08;;;11.60;99.90;;;;;;5033576;28;20048;-82
2023/03/13 01:52:46;;;;;;;11.10;2.78;;;11.50;99.90;;;;;;5033686;28;20468;-79
2023/03/13 01:55:18;;;;;;;;;;;11.50;99.90;;;;;;5032475;28;20053;-78
2023/03/13 01:57:49;;;;;;;12.10;2.60;;;11.50;99.90;;;;;;5033531;28;19921;-81
2023/03/13 02:00:16;;;;;;;10.55;2.35;;;11.50;99.90;;;;;;5033522;28;20480;-80
2023/03/13 02:02:42;;;;;;;11.25;2.17;;;11.60;99.90;;;;;;5032321;28;20112;-79
2023/03/13 02:05:09;;;;;;;12.43;2.65;;;11.60;99.90;;;;;;5033489;28;20049;-81
2023/03/13 02:07:36;;;;;;;14.80;2.45;;;11.70;99.90;;;;;;5033179;28;20045;-79
2023/03/13 02:10:02;;;;;;;12.32;2.60;;;11.70;99.90;;;;;;5033357;28;20080;-80
2023/03/13 02:12:29;;;;;;;10.77;2.17;;;11.70;99.90;;;;;;5034308;28;20049;-77
2023/03/13 02:14:56;;;;;;;10.30;2.45;;;11.70;99.90;;;;;;5032191;28;20060;-80
2023/03/13 02:17:22;;;;;;;5.82;1.70;;;11.80;99.90;;;;;;5016542;28;20043;-81
2023/03/13 02:19:50;;;;;;;10.52;2.35;;;11.70;99.90;;;;;;5016891;28;20468;-78
2023/03/13 02:22:17;;;;;;;5.63;1.65;;;11.80;99.90;;;;;;5032199;28;20037;-79
2023/03/13 02:24:44;;;;;;;10.57;2.42;;;11.70;99.90;;;;;;5016970;28;20049;-79
2023/03/13 02:27:10;;;;;;;10.25;2.28;;;11.70;99.90;;;;;;5032886;28;20033;-80
2023/03/13 02:29:39;;;;;;;5.50;1.92;;;11.70;99.90;;;;;;5016183;28;20045;-80
2023/03/13 02:32:06;;;;;;;8.57;2.10;;;11.70;99.90;;;;;;5033108;28;20422;-80
2023/03/13 02:37:22;;;;;;;9.05;2.03;;;11.60;99.90;;;;;;4557161;23;20076;-81
2023/03/13 02:39:49;;;;;;;8.77;2.13;;;11.60;99.90;;;;;;4869619;29;20431;-80
2023/03/13 02:42:16;;;;;;;7.85;2.00;;;11.60;99.90;;;;;;4884979;29;20041;-82
2023/03/13 02:44:45;;;;;;;10.55;2.20;;;11.60;99.90;;;;;;4886019;29;20372;-81
2023/03/13 02:47:12;;;;;;;10.40;2.88;;;11.60;99.90;;;;;;4885830;29;20063;-80
2023/03/13 02:49:38;;;;;;;9.80;2.30;;;11.60;99.90;;;;;;4901692;29;20059;-80
2023/03/13 02:52:05;;;;;;;10.20;2.53;;;11.50;99.90;;;;;;4901521;29;20048;-81
2023/03/13 02:54:32;;;;;;;10.25;2.40;;;11.50;99.90;;;;;;4901212;29;20143;-82
2023/03/13 02:56:58;;;;;;;9.57;2.40;;;11.60;99.90;;;;;;4899766;29;20068;-81
2023/03/13 02:59:25;;;;;;;10.43;2.33;;;11.60;99.90;;;;;;4885611;29;20145;-81
2023/03/13 03:01:52;;;;;;;11.60;2.35;;;11.60;99.90;;;;;;4869403;29;20072;-81
2023/03/13 03:04:19;;;;;;;11.25;2.30;;;11.60;99.90;;;;;;4870274;29;20041;-82
2023/03/13 03:06:51;;;;;;;11.52;2.90;;;11.60;99.90;;;;;;4885974;29;20092;-82
2023/03/13 03:09:18;;;;;;;16.65;2.67;;;11.60;99.90;;;;;;4884678;29;20487;-82
2023/03/13 03:11:45;;;;;;;9.80;2.20;;;11.60;99.90;;;;;;4901883;29;20123;-81
2023/03/13 03:14:14;;;;;;;6.80;2.10;;;11.60;99.90;;;;;;4870275;29;20126;-81
2023/03/13 03:16:43;;;;;;;8.35;2.17;;;11.70;99.90;;;;;;4883922;29;20055;-81
2023/03/13 03:19:10;;;;;;;10.63;2.13;;;11.60;99.90;;;;;;4901895;29;20116;-81
2023/03/13 03:21:37;;;;;;;13.63;2.67;;;11.60;99.90;;;;;;4884223;29;20685;-82
2023/03/13 03:24:04;;;;;;;9.88;1.80;;;11.60;99.90;;;;;;4885214;29;20460;-80
2023/03/13 03:26:30;;;;;;;11.05;1.88;;;11.50;99.90;;;;;;4885221;29;20040;-81
2023/03/13 03:28:57;;;;;;;10.10;2.00;;;11.50;99.90;;;;;;4869236;29;20049;-80
2023/03/13 03:31:24;;;;;;;7.45;2.15;;;11.40;99.90;;;;;;4884964;29;20049;-82
2023/03/13 03:33:51;;;;;;;5.85;1.50;;;11.50;99.90;;;;;;4884892;29;20058;-80
2023/03/13 03:36:19;;;;;;;9.85;1.60;;;11.50;99.90;;;;;;4883624;29;20099;-81
2023/03/13 03:38:46;;;;;;;7.60;1.80;;;11.40;99.90;;;;;;4866098;29;20404;-81
2023/03/13 03:41:16;;;;;;;5.65;1.40;;;11.40;99.90;;;;;;4863145;29;20037;-81
2023/03/13 03:43:42;;;;;;;6.97;1.42;;;11.50;99.90;;;;;;4862790;29;20052;-81
2023/03/13 03:46:12;;;;;;;6.03;1.40;;;11.40;99.90;;;;;;4862944;29;20117;-80
2023/03/13 03:48:39;;;;;;;6.25;1.50;;;11.40;99.90;;;;;;4846997;29;20060;-81
2023/03/13 03:51:07;;;;;;;5.80;1.40;;;11.40;99.90;;;;;;4862098;29;20041;-82
2023/03/13 03:53:38;;;;;;;3.15;1.00;;;11.40;99.90;;;;;;4862978;29;20117;-80
2023/03/13 03:56:05;;;;;;;4.63;1.20;;;11.40;99.90;;;;;;4846338;29;20049;-80
2023/03/13 03:58:33;;;;;;;3.42;1.40;;;11.40;99.90;;;;;;4862750;29;20049;-81
2023/03/13 04:01:12;;;;;;;4.00;1.10;;;11.50;99.90;;;;;;4849015;29;20476;-80
2023/03/13 04:03:39;;;;;;;4.60;1.63;;;11.50;99.90;;;;;;4846765;29;20045;-80
2023/03/13 04:06:06;;;;;;;5.05;1.15;;;11.50;99.90;;;;;;4862426;29;20041;-82
2023/03/13 04:08:33;;;;;;;4.90;1.20;;;11.50;99.90;;;;;;4861916;29;20041;-81
2023/03/13 04:11:00;;;;;;;4.32;1.20;;;11.50;99.90;;;;;;4863103;29;20376;-79
2023/03/13 04:13:29;;;;;;;3.78;1.13;;;11.50;99.90;;;;;;4862805;29;20050;-81
2023/03/13 04:15:57;;;;;;;2.38;1.10;;;11.50;99.90;;;;;;4861487;29;20063;-82
2023/03/13 04:18:24;;;;;;;4.53;1.13;;;11.50;99.90;;;;;;4847738;29;20049;-80
2023/03/13 04:20:51;;;;;;;6.38;1.40;;;11.50;99.90;;;;;;4847502;29;20041;-82
2023/03/13 04:23:17;;;;;;;8.85;1.50;;;11.60;99.90;;;;;;4862949;29;20045;-81
2023/03/13 04:25:44;;;;;;;3.67;1.30;;;11.60;99.90;;;;;;4846997;29;20082;-82
2023/03/13 04:28:11;;;;;;;9.40;1.48;;;11.70;99.90;;;;;;4861393;29;20061;-82
2023/03/13 04:30:42;;;;;;;6.07;2.22;;;11.70;99.90;;;;;;4862419;29;20053;-80
2023/03/13 04:33:09;;;;;;;8.70;1.50;;;11.70;99.90;;;;;;4863490;29;20227;-81
2023/03/13 04:36:00;;;;;;;8.27;1.75;;;11.70;99.90;;;;;;4849326;29;20058;-80
2023/03/13 04:38:56;;;;;;;9.75;1.83;;;11.60;99.90;;;;;;4867819;29;20206;-81
2023/03/13 04:41:41;;;;;;;10.63;1.73;;;11.60;99.90;;;;;;4881087;29;20060;-81
2023/03/13 04:44:31;;;;;;;9.82;2.00;;;11.50;99.90;;;;;;4880930;29;20049;-81
2023/03/13 04:47:23;;;;;;;10.73;2.22;;;11.50;99.90;;;;;;4880934;29;20384;-81
2023/03/13 04:50:08;;;;;;;10.23;1.88;;;11.40;99.90;;;;;;4882565;29;20064;-80
2023/03/13 04:52:43;;;;;;;7.75;1.50;;;11.40;99.90;;;;;;4881790;29;20135;-81
2023/03/13 04:55:32;;;;;;;8.13;1.70;;;11.50;99.90;;;;;;4888571;29;20065;-81
2023/03/13 04:58:25;;;;;;;8.50;1.60;;;11.50;99.90;;;;;;4881186;29;20433;-82
2023/03/13 05:01:06;;;;;;;8.40;1.50;;;11.50;99.90;;;;;;4895662;29;20476;-80
2023/03/13 05:03:51;;;;;;;5.78;1.65;;;11.60;99.90;;;;;;4883314;29;20045;-82
2023/03/13 05:06:37;;;;;;;10.55;1.90;;;11.60;99.90;;;;;;4881559;29;20063;-79
2023/03/13 05:09:09;;;;;;;9.93;1.70;;;11.50;99.90;;;;;;4879856;29;20049;-79
2023/03/13 05:11:50;;;;;;;11.93;2.03;;;11.50;99.90;;;;;;4881628;29;20041;-82
2023/03/13 05:14:45;;;;;;;13.70;2.20;;;11.50;99.90;;;;;;4880550;29;20131;-81
2023/03/13 05:17:32;;;;;;;8.15;1.80;;;11.50;99.90;;;;;;4883277;29;20539;-82
2023/03/13 05:20:25;;;;;;;15.80;2.15;;;11.50;99.90;;;;;;4873371;29;20041;-80
2023/03/13 05:23:09;;;;;;;10.30;2.17;;;11.50;99.90;;;;;;4879787;29;20066;-80
2023/03/13 05:25:54;;;;;;;12.00;2.10;;;11.50;99.90;;;;;;4880243;29;20117;-81
2023/03/13 05:28:50;;;;;;;16.00;2.55;;;11.50;99.90;;;;;;4871399;29;20385;-82
2023/03/13 05:31:30;;;;;;;11.68;2.30;;;11.50;99.90;;;;;;4882043;29;20052;-79
2023/03/13 05:34:15;;;;;;;11.73;2.25;;;11.50;99.90;;;;;;4881205;29;20085;-81
2023/03/13 05:37:03;;;;;;;16.83;2.72;;;11.50;99.90;;;;;;4882279;29;20723;-80
2023/03/13 05:39:58;;;;;;;15.25;2.70;;;11.60;99.90;;;;;;4886991;29;20060;-81
2023/03/13 05:42:39;;;;;;;12.73;2.63;;;11.60;99.90;;;;;;4868517;29;20123;-79
2023/03/13 05:45:08;;;;;;;25.33;4.50;;;11.60;99.90;;;;;;4883302;29;20499;-79
2023/03/13 05:47:53;;;;;;;19.13;2.70;;;11.50;99.90;;;;;;4899592;29;20490;-80
2023/03/13 05:50:33;;;;;;;15.60;3.30;;;11.60;99.90;;;;;;4898777;29;20075;-79
2023/03/13 05:53:16;;;;;;;23.77;3.42;;;11.60;99.90;;;;;;4882676;29;20139;-82
2023/03/13 05:56:05;;;;;;;14.90;2.50;;;11.50;99.90;;;;;;4881739;29;20057;-80
2023/03/13 05:59:03;;;;;;;16.17;2.60;;;11.40;99.90;;;;;;4866888;29;20064;-81
2023/03/13 06:01:49;;;;;;;16.73;3.40;;;11.40;99.90;;;;;;4882415;29;20074;-80
2023/03/13 06:04:25;;;;;;;17.85;2.83;;;11.40;99.90;;;;;;4882844;29;20043;-80
2023/03/13 06:06:52;;;;;;;24.92;3.20;;;11.40;99.90;;;;;;4882608;29;20095;-80
2023/03/13 06:09:19;;;;;;;15.45;2.60;;;11.40;99.90;;;;;;4881943;29;20391;-81
2023/03/13 06:11:46;;;;;;;22.13;2.78;;;11.40;99.90;;;;;;4882735;29;20055;-81
2023/03/13 06:14:12;;;;;;;19.83;2.47;;;11.50;99.90;;;;;;4900980;29;20056;-80
2023/03/13 06:16:45;;;;;;;13.52;2.40;;;11.40;99.90;;;;;;4900483;29;20054;-81
2023/03/13 06:19:18;;;;;;;14.27;2.78;;;11.50;99.90;;;;;;4902821;29;20048;-82
2023/03/13 06:21:44;;;;;;;16.80;2.92;;;11.50;99.90;;;;;;4901258;29;20048;-79
2023/03/13 06:24:11;;;;;;;19.05;2.70;;;11.50;99.90;;;;;;4886301;29;20051;-81
2023/03/13 06:26:37;;;;;;;16.40;2.58;;;11.60;99.90;;;;;;4886416;29;20082;-81
2023/03/13 06:29:04;;;;;;;16.42;2.90;;;11.60;99.90;;;;;;4901783;29;20040;-79
2023/03/13 06:31:31;;;;;;;20.15;3.15;;;11.50;99.90;;;;;;4886112;29;20061;-81
2023/03/13 06:33:58;;;;;;;21.73;3.15;;;11.60;99.90;;;;;;4886154;29;20063;-79
2023/03/13 06:36:24;;;;;;;20.60;3.30;;;11.60;99.90;;;;;;4901085;29;20063;-83
2023/03/13 06:38:51;;;;;;;13.88;3.03;;;11.60;99.90;;;;;;4902853;29;20105;-80
2023/03/13 06:41:18;;;;;;;22.08;4.22;;;11.70;99.90;;;;;;4885632;29;20049;-81
2023/03/13 06:43:44;;;;;;;27.33;3.75;;;11.70;99.90;;;;;;4902349;29;20043;-82
2023/03/13 06:46:11;;;;;;;23.20;4.03;;;11.70;99.90;;;;;;4885573;29;20045;-82
2023/03/13 06:48:38;;;;;;;17.88;3.50;;;11.70;99.90;;;;;;4885057;29;20048;-81
2023/03/13 06:51:04;;;;;;;30.30;4.53;;;11.70;99.90;;;;;;4901648;29;20115;-82
2023/03/13 06:53:31;;;;;;;20.80;4.20;;;11.70;99.90;;;;;;4885596;29;20053;-81
2023/03/13 06:55:57;;;;;;;20.95;4.07;;;11.70;99.90;;;;;;4900811;29;20490;-81
2023/03/13 06:58:24;;;;;;;32.40;4.97;;;11.70;99.90;;;;;;4901367;29;20048;-80
2023/03/13 07:00:58;;;;;;;22.27;3.70;;;11.80;99.90;;;;;;4878412;29;20072;-82
2023/03/13 07:03:25;;;;;;;21.55;3.65;;;11.80;99.90;;;;;;4881298;29;20061;-79
2023/03/13 07:05:52;;;;;;;23.77;4.30;;;11.80;99.90;;;;;;4881976;29;20077;-81
2023/03/13 07:08:18;;;;;;;22.98;3.88;;;11.80;99.90;;;;;;4882247;29;20362;-79
2023/03/13 07:10:47;;;;;;;27.40;5.32;;;11.80;99.90;;;;;;4882370;29;20468;-79
2023/03/13 07:13:14;;;;;;;22.58;4.40;;;11.80;99.90;;;;;;4882175;29;20041;-80
2023/03/13 07:15:40;;;;;;;30.33;3.92;;;11.80;99.90;;;;;;4880950;29;20395;-80
2023/03/13 07:18:07;;;;;;;31.65;4.47;;;11.80;99.90;;;;;;4882123;29;20056;-80
2023/03/13 07:20:34;;;;;;;38.85;5.05;;;11.80;99.90;;;;;;4882938;29;20392;-81
2023/03/13 07:23:00;;;;;;;31.70;4.85;;;11.80;99.90;;;;;;4882069;29;20037;-81
2023/03/13 07:25:27;;;;;;;40.30;4.80;;;11.80;99.90;;;;;;4881509;29;20052;-81
2023/03/13 07:27:54;;;;;;;28.98;4.93;;;11.80;99.90;;;;;;4881901;29;20041;-80
2023/03/13 07:30:20;;;;;;;27.00;5.50;;;11.90;99.90;;;;;;4880911;29;20052;-81
2023/03/13 07:32:47;;;;;;;27.17;3.85;;;11.90;99.90;;;;;;4891815;29;20113;-79
2023/03/13 07:35:14;;;;;;;26.08;3.95;;;11.90;99.90;;;;;;4883718;29;20104;-80
2023/03/13 07:37:40;;;;;;;28.48;3.95;;;11.90;99.90;;;;;;4884749;29;20056;-82
2023/03/13 07:40:08;;;;;;;30.63;4.70;;;12.00;99.90;;;;;;4901522;29;20044;-80
2023/03/13 07:42:34;;;;;;;29.40;4.47;;;12.00;99.90;;;;;;4899576;29;20051;-80
2023/03/13 07:45:01;;;;;;;26.42;4.20;;;12.00;99.90;;;;;;4900379;29;20063;-79
2023/03/13 07:47:28;;;;;;;32.30;4.65;;;12.00;99.90;;;;;;4901295;29;20040;-82
2023/03/13 07:49:54;;;;;;;38.70;5.07;;;12.10;99.90;;;;;;4899265;29;20056;-79
2023/03/13 07:52:21;;;;;;;37.00;5.43;;;12.10;99.90;;;;;;4884508;29;20115;-81
2023/03/13 07:54:48;;;;;;;26.30;5.20;;;12.00;99.90;;;;;;4898748;29;20457;-82
2023/03/13 07:57:15;;;;;;;43.17;5.53;;;12.10;99.90;;;;;;4900278;29;20132;-80
2023/03/13 07:59:41;;;;;;;32.80;4.57;;;12.10;99.90;;;;;;4900144;29;20464;-79
2023/03/13 08:02:08;;;;;;;27.02;4.03;;;12.10;99.90;;;;;;4899943;29;20041;-80
2023/03/13 08:04:35;;;;;;;27.95;4.35;;;12.10;99.90;;;;;;4899630;29;20044;-82
2023/03/13 08:07:01;;;;;;;42.90;6.03;;;12.10;99.90;;;;;;4900871;29;20037;-81
2023/03/13 08:09:28;;;;;;;32.47;4.60;;;12.10;99.90;;;;;;4898862;29;20357;-78
2023/03/13 08:11:55;;;;;;;35.38;4.88;;;12.10;99.90;;;;;;4900673;29;20112;-79
2023/03/13 08:14:21;;;;;;;31.90;5.22;;;12.10;99.90;;;;;;4900608;29;20463;-82
2023/03/13 08:16:48;;;;;;;33.08;4.28;;;12.10;99.90;;;;;;4898317;29;20060;-79
2023/03/13 08:19:15;;;;;;;37.70;5.00;;;12.10;99.90;;;;;;4900530;29;20372;-80
2023/03/13 08:21:41;;;;;;;36.30;5.03;;;12.10;99.90;;;;;;4898565;29;20040;-80
2023/03/13 08:24:09;;;;;;;36.47;5.30;;;12.20;99.90;;;;;;4899860;29;20044;-78
2023/03/13 08:26:36;;;;;;;31.17;5.30;;;12.20;99.90;;;;;;4899087;29;20480;-79
2023/03/13 08:29:02;;;;;;;26.20;4.32;;;12.30;99.90;;;;;;4899197;29;20036;-80
2023/03/13 08:31:29;;;;;;;29.55;5.13;;;12.30;99.90;;;;;;4900369;29;20065;-80
2023/03/13 08:33:55;;;;;;;40.42;5.65;;;12.30;99.90;;;;;;4880756;29;20067;-79
2023/03/13 08:36:23;;;;;;;30.08;4.63;;;12.30;99.90;;;;;;4879745;29;20116;-82
2023/03/13 08:38:53;;;;;;;33.85;5.53;;;12.30;99.90;;;;;;4882625;29;20084;-81
2023/03/13 08:41:20;;;;;;;41.70;5.95;;;12.40;99.90;;;;;;4899163;29;20060;-81
2023/03/13 08:43:46;;;;;;;39.28;5.90;;;12.40;99.90;;;;;;4868203;29;20040;-79
2023/03/13 08:46:13;;;;;;;37.20;5.35;;;12.40;99.90;;;;;;4883126;29;20056;-79
2023/03/13 08:48:40;;;;;;;33.20;5.35;;;12.50;99.90;;;;;;4882656;29;20502;-78
2023/03/13 08:51:06;;;;;;;34.53;4.65;;;12.60;99.90;;;;;;4883783;29;20040;-79
2023/03/13 08:53:33;;;;;;;39.83;5.28;;;12.60;99.90;;;;;;4900153;29;20131;-81
2023/03/13 08:56:00;;;;;;;37.67;5.10;;;12.60;99.90;;;;;;4898522;29;20059;-80
2023/03/13 08:58:26;;;;;;;37.15;5.78;;;12.60;99.90;;;;;;4883421;29;20044;-80
2023/03/13 09:00:53;;;;;;;34.28;4.82;;;12.60;99.90;;;;;;4883213;29;20048;-80
2023/03/13 09:03:19;;;;;;;36.30;4.68;;;12.50;99.90;;;;;;4882334;29;20402;-78
2023/03/13 09:05:46;;;;;;;33.17;5.75;;;12.60;99.90;;;;;;4883024;29;20131;-79
2023/03/13 09:08:21;;;;;;;27.52;4.65;;;12.50;99.90;;;;;;4883678;29;20507;-80
2023/03/13 09:10:48;;;;;;;42.15;5.32;;;12.60;99.90;;;;;;4883490;29;20037;-79
2023/03/13 09:13:15;;;;;;;35.97;5.25;;;12.50;99.90;;;;;;4899682;29;20048;-81
2023/03/13 09:15:41;;;;;;;26.15;4.35;;;12.60;99.90;;;;;;4866518;29;20048;-79
2023/03/13 09:18:08;;;;;;;39.75;5.35;;;12.60;99.90;;;;;;4867707;29;20112;-79
2023/03/13 09:20:35;;;;;;;28.75;4.60;;;12.50;99.90;;;;;;4874608;29;20048;-81
2023/03/13 09:23:01;;;;;;;35.47;4.65;;;12.60;99.90;;;;;;4884759;29;20055;-80
2023/03/13 09:25:28;;;;;;;34.25;4.63;;;12.60;99.90;;;;;;4901193;29;20048;-80
2023/03/13 09:27:55;;;;;;;38.97;5.18;;;12.60;99.90;;;;;;4917555;29;20036;-79
2023/03/13 09:30:21;;;;;;;39.60;6.18;;;12.70;99.90;;;;;;4917316;29;20044;-78
2023/03/13 09:32:48;;;;;;;42.83;5.88;;;12.70;99.90;;;;;;4891272;29;20471;-77
2023/03/13 09:35:15;;;;;;;43.35;5.60;;;12.80;99.90;;;;;;4875249;29;20129;-78
2023/03/13 09:37:41;;;;;;;37.13;4.53;;;12.80;99.90;;;;;;4898362;29;20056;-81
2023/03/13 09:40:08;;;;;;;40.63;5.50;;;12.80;99.90;;;;;;4894180;29;20040;-82
2023/03/13 09:42:34;;;;;;;30.45;4.65;;;12.80;99.90;;;;;;4902092;29;20498;-81
2023/03/13 09:45:01;;;;;;;40.63;5.50;;;12.80;99.90;;;;;;4897033;29;20044;-78
2023/03/13 09:47:28;;;;;;;34.88;4.80;;;12.80;99.90;;;;;;4898600;29;20467;-80
2023/03/13 09:49:55;;;;;;;36.22;5.72;;;12.80;99.90;;;;;;4899662;29;20053;-79
2023/03/13 09:52:21;;;;;;;41.55;5.50;;;12.80;99.90;;;;;;4901663;29;20048;-81
2023/03/13 09:54:48;;;;;;;35.53;4.68;;;12.80;99.90;;;;;;4900205;29;20088;-80
2023/03/13 09:57:15;;;;;;;34.40;5.57;;;12.90;99.90;;;;;;4882415;29;20079;-80
2023/03/13 09:59:42;;;;;;;33.00;5.25;;;13.00;99.90;;;;;;4866988;29;20376;-79
2023/03/13 10:02:09;;;;;;;36.10;5.68;;;12.90;99.90;;;;;;4866631;29;20045;-79
2023/03/13 10:04:35;;;;;;;31.65;5.18;;;12.90;99.90;;;;;;4866492;29;20052;-80
2023/03/13 10:07:05;;;;;;;37.67;5.03;;;12.90;99.90;;;;;;4868027;29;20108;-80
2023/03/13 10:09:32;;;;;;;42.03;5.90;;;12.90;99.90;;;;;;4869053;29;20416;-79
2023/03/13 10:11:59;;;;;;;25.30;4.32;;;12.90;99.90;;;;;;4884956;29;20147;-81
2023/03/13 10:14:26;;;;;;;33.35;4.65;;;12.90;99.90;;;;;;4885252;29;20059;-82
2023/03/13 10:16:52;;;;;;;32.22;5.05;;;13.00;99.90;;;;;;4895104;29;20052;-80
2023/03/13 10:19:19;;;;;;;33.90;4.82;;;13.10;99.90;;;;;;4900354;29;20045;-79
2023/03/13 10:21:46;;;;;;;29.33;5.38;;;13.20;99.90;;;;;;4899368;29;20154;-81
2023/03/13 10:24:12;;;;;;;30.50;5.30;;;13.20;99.90;;;;;;4900143;29;20040;-81
2023/03/13 10:26:40;;;;;;;39.22;5.40;;;13.20;99.90;;;;;;4899491;29;20051;-81
2023/03/13 10:29:06;;;;;;;36.15;5.60;;;13.20;99.90;;;;;;4905120;29;20527;-79
2023/03/13 10:31:33;;;;;;;38.85;4.88;;;13.10;99.90;;;;;;4899728;29;20103;-83
2023/03/13 10:34:00;;;;;;;47.05;6.32;;;13.20;99.90;;;;;;4882463;29;20056;-79
2023/03/13 10:36:27;;;;;;;32.85;5.03;;;13.10;99.90;;;;;;4880267;29;20041;-82
2023/03/13 10:38:55;;;;;;;30.73;4.90;;;13.10;99.90;;;;;;4886679;29;20542;-79
2023/03/13 10:41:22;;;;;;;35.22;5.20;;;13.20;99.90;;;;;;4870945;29;20076;-80
2023/03/13 10:43:48;;;;;;;38.38;5.05;;;13.30;99.90;;;;;;4898196;29;20052;-81
2023/03/13 10:46:15;;;;;;;40.03;5.50;;;13.30;99.90;;;;;;4880943;29;20068;-80
2023/03/13 10:48:45;;;;;;;40.47;6.20;;;13.40;99.90;;;;;;4897366;29;20037;-80
2023/03/13 10:51:11;;;;;;;37.28;5.13;;;13.40;99.90;;;;;;4901318;29;20060;-81
2023/03/13 10:53:38;;;;;;;48.13;6.70;;;13.40;99.90;;;;;;4902298;29;20059;-81
2023/03/13 10:56:05;;;;;;;39.13;5.47;;;13.50;99.90;;;;;;4899071;29;20147;-81
2023/03/13 10:58:31;;;;;;;35.75;5.93;;;13.60;99.90;;;;;;4889604;29;20588;-79
2023/03/13 11:00:58;;;;;;;35.03;5.20;;;13.60;99.90;;;;;;4878671;29;20480;-80
2023/03/13 11:03:25;;;;;;;35.83;4.43;;;13.70;99.90;;;;;;4891173;29;20051;-79
2023/03/13 11:05:52;;;;;;;37.53;5.10;;;13.70;99.90;;;;;;4884737;29;20104;-83
2023/03/13 11:08:19;;;;;;;39.03;5.45;;;13.70;99.90;;;;;;4899261;29;20329;-78
2023/03/13 11:10:45;;;;;;;30.58;6.03;;;13.80;99.90;;;;;;4894983;29;20049;-79
2023/03/13 11:13:12;;;;;;;37.60;5.00;;;14.00;99.90;;;;;;4888829;29;20064;-83
2023/03/13 11:15:39;;;;;;;40.17;5.15;;;14.10;99.90;;;;;;4892256;29;20321;-81
2023/03/13 11:18:05;;;;;;;33.40;5.20;;;14.00;99.90;;;;;;4867340;29;20060;-80
2023/03/13 11:20:32;;;;;;;39.10;5.05;;;14.00;99.90;;;;;;4880771;29;20099;-82
2023/03/13 11:22:59;;;;;;;37.15;4.65;;;13.90;99.90;;;;;;4888026;29;20384;-81
2023/03/13 11:25:25;;;;;;;25.65;4.45;;;13.80;99.90;;;;;;4898751;29;20049;-79
2023/03/13 11:27:52;;;;;;;33.42;4.47;;;13.80;99.90;;;;;;4883231;29;20044;-81
2023/03/13 11:30:19;;;;;;;36.67;5.80;;;13.90;99.90;;;;;;4870904;29;20059;-82
2023/03/13 11:32:46;;;;;;;37.05;4.78;;;13.90;99.90;;;;;;4868804;29;20068;-81
2023/03/13 11:35:13;;;;;;;36.42;5.22;;;14.00;99.90;;;;;;4898739;29;20108;-81
2023/03/13 11:37:39;;;;;;;31.50;5.80;;;14.10;99.90;;;;;;4889975;29;20076;-81
2023/03/13 11:40:06;;;;;;;32.28;5.47;;;14.10;99.90;;;;;;4882809;29;20052;-79
2023/03/13 11:42:33;;;;;;;33.58;4.88;;;14.50;99.90;;;;;;4897049;29;20372;-81
2023/03/13 11:45:00;;;;;;;31.88;4.70;;;14.50;99.90;;;;;;4883139;29;20044;-79
2023/03/13 11:47:27;;;;;;;28.45;4.20;;;14.40;99.90;;;;;;4873776;29;20052;-81
2023/03/13 11:49:54;;;;;;;31.60;4.72;;;14.50;99.90;;;;;;4902191;29;20384;-80
2023/03/13 11:52:21;;;;;;;39.85;5.45;;;14.40;99.90;;;;;;4899877;29;20059;-81
2023/03/13 11:54:47;;;;;;;26.77;4.40;;;14.40;99.90;;;;;;4897159;29;20471;-79
2023/03/13 11:57:14;;;;;;;28.50;4.68;;;14.50;99.90;;;;;;4898964;29;20463;-78
2023/03/13 11:59:41;;;;;;;32.25;5.07;;;14.50;99.90;;;;;;4900246;29;20056;-81
2023/03/13 12:02:07;;;;;;;35.35;5.22;;;14.50;99.90;;;;;;4897360;29;20470;-81
2023/03/13 12:04:35;;;;;;;36.30;4.95;;;14.50;99.90;;;;;;4898687;29;20107;-81
2023/03/13 12:07:02;;;;;;;29.00;5.13;;;14.50;99.90;;;;;;4891411;29;20131;-80
2023/03/13 12:09:30;;;;;;;35.30;4.20;;;14.50;99.90;;;;;;4889052;29;20486;-81
2023/03/13 12:12:02;;;;;;;32.17;5.30;;;14.40;99.90;;;;;;4881662;29;20037;-80
2023/03/13 12:14:28;;;;;;;38.15;5.00;;;14.40;99.90;;;;;;4914615;29;20375;-80
2023/03/13 12:16:55;;;;;;;34.03;4.78;;;14.50;99.90;;;;;;4897442;29;20395;-80
2023/03/13 12:19:22;;;;;;;28.83;4.95;;;14.80;99.90;;;;;;4875871;29;20045;-79
2023/03/13 12:21:49;;;;;;;34.55;4.50;;;14.90;99.90;;;;;;4880207;29;20064;-79
2023/03/13 12:24:16;;;;;;;29.23;4.78;;;14.90;99.90;;;;;;4880202;29;20064;-79
2023/03/13 12:26:42;;;;;;;27.05;4.45;;;14.70;99.90;;;;;;4879798;29;20068;-82
2023/03/13 12:29:09;;;;;;;30.80;4.47;;;14.90;99.90;;;;;;4864094;29;20053;-81
2023/03/13 12:31:35;;;;;;;35.92;4.90;;;15.10;99.90;;;;;;4881844;29;20044;-82
2023/03/13 12:34:02;;;;;;;30.65;5.13;;;15.00;99.90;;;;;;4898765;29;20063;-80
2023/03/13 12:36:29;;;;;;;26.77;4.90;;;15.20;99.90;;;;;;4898456;29;20044;-81
2023/03/13 12:38:57;;;;;;;27.15;5.18;;;15.50;99.90;;;;;;4898686;29;20071;-79
2023/03/13 12:41:24;;;;;;;30.25;4.35;;;15.60;99.90;;;;;;4897443;29;20052;-80
2023/03/13 12:43:50;;;;;;;33.25;5.03;;;15.30;99.90;;;;;;4899937;29;20171;-78
2023/03/13 12:46:34;;;;;;;28.35;4.55;;;15.00;99.90;;;;;;4882509;29;20053;-79
2023/03/13 12:49:00;;;;;;;30.00;5.60;;;14.80;99.90;;;;;;4898441;29;20044;-83
2023/03/13 12:51:27;;;;;;;34.90;4.95;;;14.70;99.90;;;;;;4899432;29;20435;-78